Time;durP1;ratioP1;P1;durP2;ratioP2;P2;SDS_P1;SDS_P2;PMS_P1;PMS_P2;Temp;Humidity;BMP_temperature;BMP_pressure;BME280_temperature;BME280_humidity;BME280_pressure;Samples;Min_cycle;Max_cycle;Signal;HPM_P1;HPM_P2
2022/07/29 00:00:21;;;;;;;2.72;2.53;;;;;;;;;;5081858;27;20235;-52
2022/07/29 00:02:48;;;;;;;4.70;3.50;;;;;;;;;;5073431;27;20365;-53
2022/07/29 00:05:14;;;;;;;4.47;3.10;;;;;;;;;;5079512;27;20230;-53
2022/07/29 00:07:41;;;;;;;7.38;3.95;;;;;;;;;;5073675;27;20241;-52
2022/07/29 00:10:07;;;;;;;4.07;2.95;;;;;;;;;;5075010;27;20736;-52
2022/07/29 00:12:34;;;;;;;6.15;2.95;;;;;;;;;;5084316;27;20241;-52
2022/07/29 00:15:00;;;;;;;3.30;2.80;;;;;;;;;;5078764;27;20330;-52
2022/07/29 00:17:28;;;;;;;12.82;4.00;;;;;;;;;;5075172;27;20254;-52
2022/07/29 00:19:54;;;;;;;6.80;4.13;;;;;;;;;;5066100;27;20235;-52
2022/07/29 00:22:20;;;;;;;5.35;3.88;;;;;;;;;;5077109;28;20350;-52
2022/07/29 00:24:47;;;;;;;4.13;3.63;;;;;;;;;;5075725;27;20234;-52
2022/07/29 00:27:14;;;;;;;4.50;3.33;;;;;;;;;;5081663;27;20322;-52
2022/07/29 00:29:40;;;;;;;6.85;4.10;;;;;;;;;;5078076;27;20226;-52
2022/07/29 00:32:07;;;;;;;4.47;3.42;;;;;;;;;;5082894;27;20233;-51
2022/07/29 00:37:18;;;;;;;4.30;3.55;;;;;;;;;;5077485;27;20248;-52
2022/07/29 00:39:45;;;;;;;4.75;4.00;;;;;;;;;;5081032;27;20233;-55
2022/07/29 00:42:11;;;;;;;4.93;3.40;;;;;;;;;;5074554;27;20237;-52
2022/07/29 00:44:38;;;;;;;4.32;3.58;;;;;;;;;;5079118;27;20223;-52
2022/07/29 00:47:04;;;;;;;6.97;3.30;;;;;;;;;;5082731;27;20358;-52
2022/07/29 00:49:31;;;;;;;5.57;3.30;;;;;;;;;;5073773;27;20231;-54
2022/07/29 00:52:01;;;;;;;4.00;3.50;;;;;;;;;;5067372;27;20274;-53
2022/07/29 00:54:27;;;;;;;3.25;2.95;;;;;;;;;;5076611;27;20234;-52
2022/07/29 00:56:54;;;;;;;6.07;3.92;;;;;;;;;;5082478;27;20249;-52
2022/07/29 00:59:20;;;;;;;7.00;3.13;;;;;;;;;;5077677;27;20331;-52
2022/07/29 01:01:46;;;;;;;6.03;3.83;;;;;;;;;;5084049;27;20601;-52
2022/07/29 01:04:13;;;;;;;6.53;4.18;;;;;;;;;;5068836;27;20720;-52
2022/07/29 01:06:39;;;;;;;4.85;3.28;;;;;;;;;;5074578;27;20250;-52
2022/07/29 01:09:07;;;;;;;5.93;4.10;;;;;;;;;;5076588;27;20239;-52
2022/07/29 01:11:34;;;;;;;7.63;2.90;;;;;;;;;;5073498;28;20634;-52
2022/07/29 01:14:01;;;;;;;3.75;3.42;;;;;;;;;;5080154;27;20322;-53
2022/07/29 01:16:31;;;;;;;5.90;3.53;;;;;;;;;;5077895;27;20233;-53
2022/07/29 01:19:01;;;;;;;6.20;3.50;;;;;;;;;;5079386;27;20236;-51
2022/07/29 01:21:45;;;;;;;4.90;3.50;;;;;;;;;;5079305;27;20245;-52
2022/07/29 01:24:26;;;;;;;5.68;3.60;;;;;;;;;;5070865;28;20235;-52
2022/07/29 01:26:58;;;;;;;5.25;3.63;;;;;;;;;;5076622;27;20605;-53
2022/07/29 01:29:27;;;;;;;6.25;3.65;;;;;;;;;;5073402;27;20824;-53
2022/07/29 01:31:56;;;;;;;5.07;3.53;;;;;;;;;;5070783;27;20712;-53
2022/07/29 01:34:24;;;;;;;5.88;3.47;;;;;;;;;;5081511;27;20569;-52
2022/07/29 01:36:53;;;;;;;4.90;3.40;;;;;;;;;;5075252;27;20236;-52
2022/07/29 01:39:20;;;;;;;6.63;3.65;;;;;;;;;;5074594;27;20238;-52
2022/07/29 01:41:50;;;;;;;5.85;3.50;;;;;;;;;;5071060;27;20247;-52
2022/07/29 01:44:19;;;;;;;4.32;3.92;;;;;;;;;;5077929;28;20325;-53
2022/07/29 01:46:50;;;;;;;8.27;3.60;;;;;;;;;;5078794;27;20637;-53
2022/07/29 01:49:18;;;;;;;8.65;3.78;;;;;;;;;;5076943;27;20227;-53
2022/07/29 01:51:46;;;;;;;6.13;3.10;;;;;;;;;;5070363;27;20258;-51
2022/07/29 01:54:15;;;;;;;4.97;3.15;;;;;;;;;;5078916;27;20231;-54
2022/07/29 01:56:43;;;;;;;6.30;3.67;;;;;;;;;;5071252;27;20334;-51
2022/07/29 01:59:10;;;;;;;5.95;3.58;;;;;;;;;;5077678;27;20261;-53
2022/07/29 02:01:37;;;;;;;5.18;4.10;;;;;;;;;;5083182;27;20740;-52
2022/07/29 02:04:06;;;;;;;4.70;3.33;;;;;;;;;;5086870;27;20229;-51
2022/07/29 02:06:33;;;;;;;7.22;3.63;;;;;;;;;;5080652;27;20233;-53
2022/07/29 02:09:00;;;;;;;6.32;3.17;;;;;;;;;;5074949;27;20234;-52
2022/07/29 02:11:26;;;;;;;5.45;3.42;;;;;;;;;;5082424;27;20313;-52
2022/07/29 02:13:55;;;;;;;6.05;4.18;;;;;;;;;;5079024;27;20249;-52
2022/07/29 02:16:22;;;;;;;4.00;3.60;;;;;;;;;;5081318;27;20237;-52
2022/07/29 02:18:50;;;;;;;3.97;3.25;;;;;;;;;;5078754;27;20235;-52
2022/07/29 02:21:20;;;;;;;4.65;3.50;;;;;;;;;;5082930;27;20773;-58
2022/07/29 02:23:47;;;;;;;4.40;3.33;;;;;;;;;;5073704;27;20246;-54
2022/07/29 02:26:13;;;;;;;9.18;3.47;;;;;;;;;;5079989;27;20746;-51
2022/07/29 02:28:39;;;;;;;5.70;3.50;;;;;;;;;;5078087;27;20234;-52
2022/07/29 02:31:06;;;;;;;5.30;3.13;;;;;;;;;;5079540;27;20243;-52
2022/07/29 02:33:33;;;;;;;6.20;3.60;;;;;;;;;;5072004;27;20227;-52
2022/07/29 02:36:00;;;;;;;4.88;3.20;;;;;;;;;;5080905;28;20766;-52
2022/07/29 02:41:14;;;;;;;2.88;2.60;;;;;;;;;;5075548;27;20245;-52
2022/07/29 02:43:41;;;;;;;6.78;3.65;;;;;;;;;;5075927;27;20239;-52
2022/07/29 02:46:12;;;;;;;5.03;3.80;;;;;;;;;;5077087;27;20807;-52
2022/07/29 02:48:41;;;;;;;5.53;3.08;;;;;;;;;;5083308;27;20237;-52
2022/07/29 02:51:12;;;;;;;5.72;3.33;;;;;;;;;;5073538;27;20230;-52
2022/07/29 02:53:42;;;;;;;3.22;2.92;;;;;;;;;;5070330;27;20230;-52
2022/07/29 02:56:11;;;;;;;2.85;2.65;;;;;;;;;;5073011;27;20409;-52
2022/07/29 02:58:39;;;;;;;5.45;2.90;;;;;;;;;;5076414;27;20328;-52
2022/07/29 03:01:09;;;;;;;3.42;3.03;;;;;;;;;;5078174;27;20231;-52
2022/07/29 03:03:37;;;;;;;3.75;3.08;;;;;;;;;;5077270;27;20314;-52
2022/07/29 03:06:04;;;;;;;3.72;3.13;;;;;;;;;;5080996;27;20241;-53
2022/07/29 03:08:32;;;;;;;3.83;3.15;;;;;;;;;;5078405;27;20238;-52
2022/07/29 03:11:00;;;;;;;8.18;3.58;;;;;;;;;;5078705;27;20230;-52
2022/07/29 03:13:27;;;;;;;4.20;3.15;;;;;;;;;;5079082;28;20230;-52
2022/07/29 03:15:54;;;;;;;4.65;3.15;;;;;;;;;;5078567;27;20237;-52
2022/07/29 03:18:21;;;;;;;3.70;3.10;;;;;;;;;;5080457;27;20222;-53
2022/07/29 03:20:47;;;;;;;5.68;2.78;;;;;;;;;;5079011;27;20237;-55
2022/07/29 03:23:18;;;;;;;4.40;2.90;;;;;;;;;;5084706;27;20245;-52
2022/07/29 03:25:45;;;;;;;7.20;3.10;;;;;;;;;;5078085;27;20222;-52
2022/07/29 03:28:13;;;;;;;3.22;2.75;;;;;;;;;;5080105;27;20554;-51
2022/07/29 03:30:39;;;;;;;5.95;3.22;;;;;;;;;;5078132;27;20261;-52
2022/07/29 03:33:05;;;;;;;5.13;3.40;;;;;;;;;;5079920;27;20229;-52
2022/07/29 03:35:32;;;;;;;6.75;3.28;;;;;;;;;;5084044;27;20227;-53
2022/07/29 03:37:58;;;;;;;5.90;3.08;;;;;;;;;;5098665;27;20238;-53
2022/07/29 03:40:26;;;;;;;5.40;2.97;;;;;;;;;;5075779;27;20231;-53
2022/07/29 03:42:54;;;;;;;7.38;2.95;;;;;;;;;;5078294;27;20243;-53
2022/07/29 03:45:22;;;;;;;5.40;3.30;;;;;;;;;;5082871;27;20226;-53
2022/07/29 03:47:51;;;;;;;3.63;2.67;;;;;;;;;;5079732;27;20842;-53
2022/07/29 03:50:19;;;;;;;4.05;2.90;;;;;;;;;;5080873;28;20250;-54
2022/07/29 03:52:46;;;;;;;5.50;3.75;;;;;;;;;;5073939;27;20277;-53
2022/07/29 03:55:12;;;;;;;5.32;3.42;;;;;;;;;;5073835;27;20241;-51
2022/07/29 03:57:40;;;;;;;3.55;3.25;;;;;;;;;;5074456;27;20242;-51
2022/07/29 04:00:07;;;;;;;5.50;3.05;;;;;;;;;;5078836;28;20227;-52
2022/07/29 04:02:36;;;;;;;4.15;2.83;;;;;;;;;;5074869;28;20219;-53
2022/07/29 04:05:03;;;;;;;4.50;2.75;;;;;;;;;;5073589;27;20246;-52
2022/07/29 04:07:29;;;;;;;5.20;2.75;;;;;;;;;;5077778;28;20242;-52
2022/07/29 04:09:56;;;;;;;7.35;3.50;;;;;;;;;;5077662;27;20238;-52
2022/07/29 04:12:22;;;;;;;5.60;2.90;;;;;;;;;;5075569;27;20231;-53
2022/07/29 04:14:49;;;;;;;3.95;2.90;;;;;;;;;;5082491;27;20230;-52
2022/07/29 04:17:16;;;;;;;6.53;3.00;;;;;;;;;;5081508;27;20314;-53
2022/07/29 04:19:44;;;;;;;4.03;3.08;;;;;;;;;;5082479;27;20748;-53
2022/07/29 04:22:10;;;;;;;5.28;2.95;;;;;;;;;;5074289;27;20231;-51
2022/07/29 04:24:36;;;;;;;3.25;2.95;;;;;;;;;;5080321;27;20226;-53
2022/07/29 04:27:03;;;;;;;4.95;3.50;;;;;;;;;;5078689;27;21912;-53
2022/07/29 04:29:29;;;;;;;4.13;3.03;;;;;;;;;;5072768;27;20223;-52
2022/07/29 04:31:55;;;;;;;2.60;2.40;;;;;;;;;;5076414;27;20234;-53
2022/07/29 04:34:22;;;;;;;4.65;3.10;;;;;;;;;;5090281;27;20765;-53
2022/07/29 04:36:49;;;;;;;7.45;3.05;;;;;;;;;;5074090;28;20227;-54
2022/07/29 04:39:17;;;;;;;6.25;3.08;;;;;;;;;;5078219;27;20249;-52
2022/07/29 04:41:44;;;;;;;4.22;3.25;;;;;;;;;;5084700;27;20292;-53
2022/07/29 04:44:10;;;;;;;9.02;3.53;;;;;;;;;;5080259;27;20476;-53
2022/07/29 04:46:37;;;;;;;7.95;2.80;;;;;;;;;;5078986;27;20361;-52
2022/07/29 04:49:04;;;;;;;3.42;3.08;;;;;;;;;;5083340;27;20309;-53
2022/07/29 04:51:30;;;;;;;2.83;2.63;;;;;;;;;;5074816;27;20230;-53
2022/07/29 04:53:58;;;;;;;2.85;2.63;;;;;;;;;;5074430;27;20242;-52
2022/07/29 04:56:24;;;;;;;4.93;3.22;;;;;;;;;;5080077;27;20230;-53
2022/07/29 04:58:50;;;;;;;6.68;3.33;;;;;;;;;;5083238;27;20235;-52
2022/07/29 05:01:16;;;;;;;5.28;3.40;;;;;;;;;;5080527;27;20700;-51
2022/07/29 05:03:43;;;;;;;4.32;2.90;;;;;;;;;;5076399;27;20239;-53
2022/07/29 05:06:10;;;;;;;7.55;2.95;;;;;;;;;;5079317;27;20237;-52
2022/07/29 05:08:36;;;;;;;8.20;3.53;;;;;;;;;;5073755;27;20227;-52
2022/07/29 05:11:04;;;;;;;3.40;3.08;;;;;;;;;;5079920;27;20226;-52
2022/07/29 05:13:30;;;;;;;4.75;2.95;;;;;;;;;;5082310;27;20223;-53
2022/07/29 05:15:58;;;;;;;4.30;2.70;;;;;;;;;;5074411;27;20227;-52
2022/07/29 05:18:24;;;;;;;5.85;3.58;;;;;;;;;;5078723;27;20738;-52
2022/07/29 05:20:50;;;;;;;3.03;2.80;;;;;;;;;;5071861;27;20251;-53
2022/07/29 05:23:16;;;;;;;8.50;3.15;;;;;;;;;;5073401;27;20230;-51
2022/07/29 05:25:43;;;;;;;7.43;3.28;;;;;;;;;;5072249;27;20241;-51
2022/07/29 05:28:11;;;;;;;7.30;3.08;;;;;;;;;;5075791;27;20230;-53
2022/07/29 05:30:37;;;;;;;6.97;3.60;;;;;;;;;;5080613;27;20230;-52
2022/07/29 05:33:03;;;;;;;4.47;3.03;;;;;;;;;;5078936;27;20271;-53
2022/07/29 05:35:29;;;;;;;4.70;2.80;;;;;;;;;;5080764;27;20234;-53
2022/07/29 05:37:56;;;;;;;7.90;3.55;;;;;;;;;;5079866;27;20234;-53
2022/07/29 05:40:22;;;;;;;6.22;3.25;;;;;;;;;;5072660;28;20261;-52
2022/07/29 05:42:49;;;;;;;8.40;3.45;;;;;;;;;;5068972;28;20304;-52
2022/07/29 05:45:16;;;;;;;5.78;2.90;;;;;;;;;;5080843;27;20230;-52
2022/07/29 05:47:42;;;;;;;11.07;3.65;;;;;;;;;;5071242;27;20261;-53
2022/07/29 05:50:09;;;;;;;4.95;2.88;;;;;;;;;;5077924;27;20252;-53
2022/07/29 05:52:35;;;;;;;3.20;2.90;;;;;;;;;;5075677;27;20230;-52
2022/07/29 05:55:05;;;;;;;3.40;2.83;;;;;;;;;;5085686;27;20771;-52
2022/07/29 05:57:31;;;;;;;5.75;3.05;;;;;;;;;;5076408;27;20226;-53
2022/07/29 05:59:58;;;;;;;7.63;3.95;;;;;;;;;;5071398;27;20239;-52
2022/07/29 06:02:25;;;;;;;4.13;2.83;;;;;;;;;;5069285;27;20233;-52
2022/07/29 06:04:52;;;;;;;3.67;2.97;;;;;;;;;;5070881;27;20234;-52
2022/07/29 06:07:18;;;;;;;4.75;2.70;;;;;;;;;;5074095;27;20231;-53
2022/07/29 06:09:44;;;;;;;4.40;2.97;;;;;;;;;;5079814;27;20245;-53
2022/07/29 06:12:11;;;;;;;5.10;3.35;;;;;;;;;;5075159;27;20301;-52
2022/07/29 06:14:37;;;;;;;4.18;2.90;;;;;;;;;;5085494;27;20225;-52
2022/07/29 06:17:04;;;;;;;7.85;3.22;;;;;;;;;;5088652;27;20240;-52
2022/07/29 06:19:32;;;;;;;2.63;2.42;;;;;;;;;;5083118;27;20226;-52
2022/07/29 06:21:58;;;;;;;7.72;2.83;;;;;;;;;;5078041;27;20233;-52
2022/07/29 06:24:24;;;;;;;4.35;3.40;;;;;;;;;;5084716;27;20235;-57
2022/07/29 06:26:51;;;;;;;3.97;2.88;;;;;;;;;;5071652;28;20760;-52
2022/07/29 06:29:17;;;;;;;6.25;2.85;;;;;;;;;;5081864;27;20230;-52
2022/07/29 06:31:43;;;;;;;2.63;2.35;;;;;;;;;;5080240;27;20239;-53
2022/07/29 06:34:10;;;;;;;4.68;3.30;;;;;;;;;;5082361;27;20235;-52
2022/07/29 06:36:38;;;;;;;6.30;3.05;;;;;;;;;;5080076;28;20227;-53
2022/07/29 06:39:05;;;;;;;4.80;2.60;;;;;;;;;;5086525;27;20775;-52
2022/07/29 06:41:32;;;;;;;5.43;3.08;;;;;;;;;;5076267;27;20605;-57
2022/07/29 06:43:59;;;;;;;16.33;3.38;;;;;;;;;;5085296;27;20234;-53
2022/07/29 06:46:25;;;;;;;2.63;2.40;;;;;;;;;;5085981;27;20226;-52
2022/07/29 06:48:52;;;;;;;7.28;2.72;;;;;;;;;;5083082;27;20634;-53
2022/07/29 06:51:18;;;;;;;4.85;2.90;;;;;;;;;;5082606;27;20231;-54
2022/07/29 06:53:46;;;;;;;8.88;3.17;;;;;;;;;;5091847;27;20232;-55
2022/07/29 06:56:13;;;;;;;6.68;2.58;;;;;;;;;;5084504;27;20249;-52
2022/07/29 06:58:40;;;;;;;3.58;2.67;;;;;;;;;;5084545;27;20306;-51
2022/07/29 07:01:07;;;;;;;3.80;2.92;;;;;;;;;;5079397;27;20234;-52
2022/07/29 07:03:33;;;;;;;5.07;2.88;;;;;;;;;;5086344;27;20230;-53
2022/07/29 07:06:00;;;;;;;6.03;2.90;;;;;;;;;;5092318;27;20235;-52
2022/07/29 07:08:26;;;;;;;2.80;2.38;;;;;;;;;;5085890;28;20236;-51
2022/07/29 07:10:54;;;;;;;3.67;2.55;;;;;;;;;;5084956;27;20246;-52
2022/07/29 07:13:21;;;;;;;5.47;2.83;;;;;;;;;;5086060;27;20719;-51
2022/07/29 07:15:48;;;;;;;5.50;2.40;;;;;;;;;;5081740;27;20261;-53
2022/07/29 07:18:15;;;;;;;9.98;3.47;;;;;;;;;;5089134;27;20234;-52
2022/07/29 07:20:41;;;;;;;2.97;2.65;;;;;;;;;;5087908;27;20249;-52
2022/07/29 07:23:08;;;;;;;6.03;2.67;;;;;;;;;;5077839;27;20235;-53
2022/07/29 07:25:34;;;;;;;4.03;2.53;;;;;;;;;;5086448;27;20233;-51
2022/07/29 07:28:02;;;;;;;9.70;4.03;;;;;;;;;;5080917;27;20239;-52
2022/07/29 07:30:28;;;;;;;3.90;2.38;;;;;;;;;;5078683;27;20227;-53
2022/07/29 07:32:55;;;;;;;3.97;3.00;;;;;;;;;;5080599;27;20257;-53
2022/07/29 07:35:22;;;;;;;4.40;2.72;;;;;;;;;;5083334;27;20221;-52
2022/07/29 07:37:48;;;;;;;4.85;3.05;;;;;;;;;;5090325;27;20229;-52
2022/07/29 07:40:14;;;;;;;3.85;2.40;;;;;;;;;;5085027;27;20313;-51
2022/07/29 07:42:41;;;;;;;4.90;2.65;;;;;;;;;;5085753;27;20237;-51
2022/07/29 07:45:10;;;;;;;4.95;2.50;;;;;;;;;;5086547;27;20231;-51
2022/07/29 07:47:36;;;;;;;4.70;3.05;;;;;;;;;;5080217;27;20233;-52
2022/07/29 07:50:03;;;;;;;4.15;2.95;;;;;;;;;;5089997;27;20230;-52
2022/07/29 07:52:29;;;;;;;5.95;2.78;;;;;;;;;;5079413;27;20234;-52
2022/07/29 07:54:56;;;;;;;13.60;3.20;;;;;;;;;;5085788;27;20230;-53
2022/07/29 07:57:22;;;;;;;3.65;2.55;;;;;;;;;;5080811;27;20313;-51
2022/07/29 07:59:56;;;;;;;4.55;2.50;;;;;;;;;;5084759;27;20230;-52
2022/07/29 08:02:23;;;;;;;4.35;2.50;;;;;;;;;;5091270;27;20237;-53
2022/07/29 08:04:50;;;;;;;3.08;2.40;;;;;;;;;;5094419;27;20234;-52
2022/07/29 08:07:16;;;;;;;5.32;2.20;;;;;;;;;;5083379;27;20226;-52
2022/07/29 08:09:42;;;;;;;3.67;1.88;;;;;;;;;;5078797;27;20237;-53
2022/07/29 08:12:09;;;;;;;2.78;2.08;;;;;;;;;;5083355;27;20283;-57
2022/07/29 08:14:35;;;;;;;8.52;2.40;;;;;;;;;;5079692;27;20223;-52
2022/07/29 08:17:01;;;;;;;5.18;2.20;;;;;;;;;;5070325;27;20251;-53
2022/07/29 08:19:29;;;;;;;5.82;2.15;;;;;;;;;;5093187;27;20238;-52
2022/07/29 08:21:55;;;;;;;3.42;2.13;;;;;;;;;;5109543;27;20230;-53
2022/07/29 08:27:06;;;;;;;5.15;2.00;;;;;;;;;;5087725;27;20313;-52
2022/07/29 08:29:32;;;;;;;5.15;2.10;;;;;;;;;;5086224;27;20231;-52
2022/07/29 08:31:59;;;;;;;5.00;1.83;;;;;;;;;;5086448;27;20238;-53
2022/07/29 08:34:25;;;;;;;4.07;2.30;;;;;;;;;;5100561;27;20242;-53
2022/07/29 08:36:53;;;;;;;6.80;2.35;;;;;;;;;;5087833;27;20231;-54
2022/07/29 08:39:19;;;;;;;6.82;2.53;;;;;;;;;;5083115;27;20708;-53
2022/07/29 08:41:46;;;;;;;3.67;2.00;;;;;;;;;;5090067;27;20704;-52
2022/07/29 08:44:13;;;;;;;3.13;1.63;;;;;;;;;;5083139;28;20223;-52
2022/07/29 08:46:40;;;;;;;4.50;2.05;;;;;;;;;;5082325;27;20238;-51
2022/07/29 08:49:06;;;;;;;3.67;2.10;;;;;;;;;;5083870;27;20230;-51
2022/07/29 08:51:35;;;;;;;5.78;2.15;;;;;;;;;;5081267;27;20249;-52
2022/07/29 08:54:03;;;;;;;1.92;1.83;;;;;;;;;;5077026;27;20235;-51
2022/07/29 08:56:29;;;;;;;2.70;1.80;;;;;;;;;;5090638;27;20238;-52
2022/07/29 08:58:58;;;;;;;2.00;1.60;;;;;;;;;;5087348;27;20230;-54
2022/07/29 09:01:25;;;;;;;2.78;1.92;;;;;;;;;;5086643;27;20234;-53
2022/07/29 09:03:55;;;;;;;4.40;1.88;;;;;;;;;;5092540;27;20230;-53
2022/07/29 09:06:22;;;;;;;2.78;1.77;;;;;;;;;;5087789;27;20238;-55
2022/07/29 09:08:48;;;;;;;2.45;1.88;;;;;;;;;;5088388;27;20237;-53
2022/07/29 09:11:16;;;;;;;2.83;1.77;;;;;;;;;;5093611;27;20238;-52
2022/07/29 09:13:42;;;;;;;4.95;1.92;;;;;;;;;;5085606;27;20231;-50
2022/07/29 09:16:09;;;;;;;2.25;2.03;;;;;;;;;;5080289;27;20230;-52
2022/07/29 09:18:37;;;;;;;5.00;1.90;;;;;;;;;;5084493;27;20219;-53
2022/07/29 09:24:00;;;;;;;2.45;1.88;;;;;;;;;;5079016;28;20596;-52
2022/07/29 09:26:30;;;;;;;4.85;2.38;;;;;;;;;;5082594;27;20291;-52
2022/07/29 09:28:57;;;;;;;4.22;1.70;;;;;;;;;;5079010;27;20716;-53
2022/07/29 09:31:32;;;;;;;2.42;2.08;;;;;;;;;;5086888;27;20718;-53
2022/07/29 09:33:59;;;;;;;3.10;1.98;;;;;;;;;;5072774;27;20226;-52
2022/07/29 09:36:26;;;;;;;10.48;2.58;;;;;;;;;;5078868;27;20252;-53
2022/07/29 09:38:58;;;;;;;2.55;1.58;;;;;;;;;;5087459;27;20245;-52
2022/07/29 09:41:24;;;;;;;4.18;1.83;;;;;;;;;;5084128;27;20230;-60
2022/07/29 09:43:56;;;;;;;2.85;1.83;;;;;;;;;;5089448;27;20240;-52
2022/07/29 09:46:23;;;;;;;7.22;2.10;;;;;;;;;;5085289;27;20234;-53
2022/07/29 09:49:04;;;;;;;3.38;1.77;;;;;;;;;;5081236;27;20258;-52
2022/07/29 09:51:30;;;;;;;2.92;2.10;;;;;;;;;;5080269;27;20249;-53
2022/07/29 09:53:56;;;;;;;3.40;1.73;;;;;;;;;;5069563;27;20245;-52
2022/07/29 09:56:38;;;;;;;3.33;1.90;;;;;;;;;;5072889;27;20845;-54
2022/07/29 09:59:07;;;;;;;3.15;2.30;;;;;;;;;;5073225;27;20238;-53
2022/07/29 10:01:33;;;;;;;2.22;1.60;;;;;;;;;;5074166;27;20878;-54
2022/07/29 10:04:00;;;;;;;6.03;2.25;;;;;;;;;;5076638;27;20530;-52
2022/07/29 10:06:26;;;;;;;7.93;1.80;;;;;;;;;;5080504;27;20727;-52
2022/07/29 10:08:52;;;;;;;3.53;1.77;;;;;;;;;;5079540;27;20704;-52
2022/07/29 10:11:19;;;;;;;5.07;1.98;;;;;;;;;;5087260;27;20877;-52
2022/07/29 10:13:46;;;;;;;9.27;2.50;;;;;;;;;;5087057;27;20233;-52
2022/07/29 10:16:15;;;;;;;3.05;1.90;;;;;;;;;;5089707;27;20287;-52
2022/07/29 10:18:42;;;;;;;3.95;2.15;;;;;;;;;;5075711;27;20224;-51
2022/07/29 10:21:09;;;;;;;4.97;2.22;;;;;;;;;;5076898;27;20729;-50
2022/07/29 10:23:36;;;;;;;2.00;1.40;;;;;;;;;;5079769;27;20689;-51
2022/07/29 10:26:02;;;;;;;3.95;1.77;;;;;;;;;;5082365;27;20239;-52
2022/07/29 10:28:30;;;;;;;3.35;1.92;;;;;;;;;;5081010;27;20225;-51
2022/07/29 10:31:01;;;;;;;6.28;2.10;;;;;;;;;;5082876;27;20249;-52
2022/07/29 10:33:36;;;;;;;4.40;1.75;;;;;;;;;;5079559;27;20730;-51
2022/07/29 10:36:06;;;;;;;2.35;1.80;;;;;;;;;;5083640;27;20234;-52
2022/07/29 10:38:42;;;;;;;3.20;1.58;;;;;;;;;;5085760;27;20234;-51
2022/07/29 10:41:29;;;;;;;3.25;1.98;;;;;;;;;;5092793;27;20669;-53
2022/07/29 10:43:57;;;;;;;2.17;1.55;;;;;;;;;;5078580;27;20235;-51
2022/07/29 10:46:24;;;;;;;4.90;1.70;;;;;;;;;;5078917;27;20250;-51
2022/07/29 10:49:08;;;;;;;3.00;2.00;;;;;;;;;;5077416;27;20334;-52
2022/07/29 10:51:49;;;;;;;4.78;2.30;;;;;;;;;;5074792;27;20607;-51
2022/07/29 10:54:16;;;;;;;3.65;2.00;;;;;;;;;;5073000;27;20734;-52
2022/07/29 10:56:42;;;;;;;7.93;1.92;;;;;;;;;;5067038;27;20242;-52
2022/07/29 10:59:28;;;;;;;4.53;2.13;;;;;;;;;;5075601;27;20230;-52
2022/07/29 11:01:54;;;;;;;2.15;1.80;;;;;;;;;;5069383;27;20710;-52
2022/07/29 11:04:39;;;;;;;2.08;1.75;;;;;;;;;;5081408;27;20238;-52
2022/07/29 11:07:10;;;;;;;2.60;2.20;;;;;;;;;;5084565;27;20254;-52
2022/07/29 11:09:37;;;;;;;2.83;1.48;;;;;;;;;;5082013;27;20241;-52
2022/07/29 11:12:03;;;;;;;3.70;1.58;;;;;;;;;;5069130;27;20230;-52
2022/07/29 11:14:48;;;;;;;2.67;1.92;;;;;;;;;;5073883;27;20234;-53
2022/07/29 11:17:14;;;;;;;2.15;1.95;;;;;;;;;;5071410;27;20746;-51
2022/07/29 11:19:42;;;;;;;9.45;2.15;;;;;;;;;;5071237;27;20232;-52
2022/07/29 11:22:11;;;;;;;5.53;1.98;;;;;;;;;;5072032;27;20699;-53
2022/07/29 11:24:37;;;;;;;1.80;1.70;;;;;;;;;;5067430;27;20237;-53
2022/07/29 11:27:07;;;;;;;2.70;2.20;;;;;;;;;;5076291;27;20303;-51
2022/07/29 11:29:35;;;;;;;3.72;1.90;;;;;;;;;;5068354;27;20238;-52
2022/07/29 11:32:09;;;;;;;2.47;2.00;;;;;;;;;;5076400;27;20261;-52
2022/07/29 11:34:36;;;;;;;3.03;1.80;;;;;;;;;;5082740;27;20233;-51
2022/07/29 11:37:17;;;;;;;4.50;2.15;;;;;;;;;;5085760;27;20237;-51
2022/07/29 11:39:44;;;;;;;3.67;2.03;;;;;;;;;;5079216;28;20235;-53
2022/07/29 11:42:29;;;;;;;8.07;2.22;;;;;;;;;;5078757;27;20239;-52
2022/07/29 11:44:56;;;;;;;5.10;2.20;;;;;;;;;;5079185;27;20361;-51
2022/07/29 11:47:23;;;;;;;2.53;1.88;;;;;;;;;;5070803;28;20444;-53
2022/07/29 11:49:50;;;;;;;2.63;2.05;;;;;;;;;;5077986;27;20231;-50
2022/07/29 11:52:18;;;;;;;4.07;2.33;;;;;;;;;;5076685;27;20677;-53
2022/07/29 11:54:46;;;;;;;4.47;1.95;;;;;;;;;;5080498;27;20226;-51
2022/07/29 11:57:14;;;;;;;2.60;2.05;;;;;;;;;;5079073;27;20227;-55
2022/07/29 11:59:41;;;;;;;3.80;1.80;;;;;;;;;;5079872;27;20230;-53
2022/07/29 12:02:08;;;;;;;3.85;2.20;;;;;;;;;;5071959;27;20444;-52
2022/07/29 12:04:35;;;;;;;3.38;2.30;;;;;;;;;;5076517;27;20524;-52
2022/07/29 12:07:01;;;;;;;3.15;1.80;;;;;;;;;;5081082;27;20238;-52
2022/07/29 12:09:29;;;;;;;3.28;2.35;;;;;;;;;;5078810;27;20716;-51
2022/07/29 12:11:57;;;;;;;1.85;1.75;;;;;;;;;;5078006;27;20235;-51
2022/07/29 12:14:27;;;;;;;3.67;2.00;;;;;;;;;;5082420;27;20628;-52
2022/07/29 12:16:53;;;;;;;4.22;1.92;;;;;;;;;;5075002;27;20230;-52
2022/07/29 12:19:19;;;;;;;3.47;2.25;;;;;;;;;;5076847;27;20234;-52
2022/07/29 12:21:46;;;;;;;3.42;1.90;;;;;;;;;;5079882;27;20248;-52
2022/07/29 12:24:12;;;;;;;2.83;1.83;;;;;;;;;;5076702;27;20249;-52
2022/07/29 12:26:50;;;;;;;3.50;2.35;;;;;;;;;;5076974;27;20233;-52
2022/07/29 12:29:17;;;;;;;4.60;2.47;;;;;;;;;;5082767;27;20724;-52
2022/07/29 12:31:44;;;;;;;4.20;2.30;;;;;;;;;;5080908;27;20246;-52
2022/07/29 12:34:10;;;;;;;2.63;2.40;;;;;;;;;;5072521;27;20766;-52
2022/07/29 12:36:37;;;;;;;3.85;2.58;;;;;;;;;;5080783;27;20222;-51
2022/07/29 12:39:03;;;;;;;5.40;2.60;;;;;;;;;;5076277;27;20226;-52
2022/07/29 12:41:30;;;;;;;3.08;2.63;;;;;;;;;;5077305;27;20230;-52
2022/07/29 12:43:58;;;;;;;5.60;2.47;;;;;;;;;;5080908;27;20239;-52
2022/07/29 12:46:24;;;;;;;3.67;2.67;;;;;;;;;;5069296;27;20242;-50
2022/07/29 12:48:54;;;;;;;3.38;2.40;;;;;;;;;;5077589;27;20223;-51
2022/07/29 12:51:28;;;;;;;2.40;2.20;;;;;;;;;;5076835;27;20235;-52
2022/07/29 12:54:03;;;;;;;2.72;2.50;;;;;;;;;;5078837;27;20230;-55
2022/07/29 12:56:30;;;;;;;3.58;2.28;;;;;;;;;;5076755;28;20226;-51
2022/07/29 12:58:58;;;;;;;3.00;2.30;;;;;;;;;;5082766;27;20230;-51
2022/07/29 13:01:24;;;;;;;4.57;2.50;;;;;;;;;;5081999;27;20258;-52
2022/07/29 13:03:52;;;;;;;4.18;2.80;;;;;;;;;;5074968;27;20222;-51
2022/07/29 13:06:28;;;;;;;2.70;2.22;;;;;;;;;;5076032;27;20688;-50
2022/07/29 13:08:59;;;;;;;3.85;2.60;;;;;;;;;;5051973;28;20227;-52
2022/07/29 13:11:29;;;;;;;4.20;2.38;;;;;;;;;;5076306;27;20430;-51
2022/07/29 13:13:56;;;;;;;7.47;2.45;;;;;;;;;;5077976;27;20231;-55
2022/07/29 13:16:23;;;;;;;3.15;2.63;;;;;;;;;;5083491;27;20446;-52
2022/07/29 13:19:03;;;;;;;2.63;2.28;;;;;;;;;;5067610;28;20636;-52
2022/07/29 13:21:29;;;;;;;3.72;2.38;;;;;;;;;;5074367;27;20223;-51
2022/07/29 13:23:55;;;;;;;4.07;2.38;;;;;;;;;;5085961;27;20238;-52
2022/07/29 13:26:22;;;;;;;3.65;2.70;;;;;;;;;;5081007;27;20238;-51
2022/07/29 13:28:48;;;;;;;5.65;2.33;;;;;;;;;;5076524;27;20241;-51
2022/07/29 13:31:15;;;;;;;3.83;3.25;;;;;;;;;;5084638;27;20234;-51
2022/07/29 13:33:43;;;;;;;2.47;2.28;;;;;;;;;;5076078;27;20234;-51
2022/07/29 13:36:09;;;;;;;2.53;2.33;;;;;;;;;;5083523;27;20663;-51
2022/07/29 13:38:35;;;;;;;3.90;2.53;;;;;;;;;;5079797;27;20742;-52
2022/07/29 13:41:02;;;;;;;4.47;2.33;;;;;;;;;;5077420;27;20239;-52
2022/07/29 13:43:28;;;;;;;2.45;2.25;;;;;;;;;;5074837;27;20407;-52
2022/07/29 13:45:55;;;;;;;3.30;2.10;;;;;;;;;;5073553;27;20246;-52
2022/07/29 13:48:21;;;;;;;4.35;2.80;;;;;;;;;;5089096;27;20249;-52
2022/07/29 13:50:49;;;;;;;3.03;2.65;;;;;;;;;;5076255;27;20883;-52
2022/07/29 13:53:15;;;;;;;5.85;2.63;;;;;;;;;;5082656;27;20302;-53
2022/07/29 13:55:41;;;;;;;6.65;2.75;;;;;;;;;;5079437;27;20320;-52
2022/07/29 13:58:08;;;;;;;3.20;2.78;;;;;;;;;;5091199;27;20245;-51
2022/07/29 14:00:34;;;;;;;2.95;2.40;;;;;;;;;;5073501;27;20237;-52
2022/07/29 14:03:00;;;;;;;3.88;2.45;;;;;;;;;;5077003;27;20238;-53
2022/07/29 14:05:27;;;;;;;3.53;2.80;;;;;;;;;;5086423;27;20222;-51
2022/07/29 14:07:55;;;;;;;3.88;2.67;;;;;;;;;;5084050;27;20253;-55
2022/07/29 14:10:21;;;;;;;3.13;2.83;;;;;;;;;;5081609;28;20241;-51
2022/07/29 14:12:47;;;;;;;2.40;2.20;;;;;;;;;;5082034;28;20245;-54
2022/07/29 14:15:14;;;;;;;5.20;2.85;;;;;;;;;;5073814;28;20248;-52
2022/07/29 14:17:40;;;;;;;2.63;2.45;;;;;;;;;;5076598;27;20231;-51
2022/07/29 14:20:07;;;;;;;2.67;2.42;;;;;;;;;;5083822;27;20593;-53
2022/07/29 14:22:33;;;;;;;5.10;2.65;;;;;;;;;;5090457;27;20700;-52
2022/07/29 14:25:01;;;;;;;3.25;2.92;;;;;;;;;;5086385;27;20234;-51
2022/07/29 14:27:27;;;;;;;3.53;2.33;;;;;;;;;;5068762;27;20234;-51
2022/07/29 14:29:53;;;;;;;3.25;2.53;;;;;;;;;;5081072;27;20253;-53
2022/07/29 14:32:20;;;;;;;2.72;2.53;;;;;;;;;;5076964;27;20235;-52
2022/07/29 14:34:46;;;;;;;4.93;3.40;;;;;;;;;;5076021;27;20226;-50
2022/07/29 14:37:12;;;;;;;5.18;2.50;;;;;;;;;;5081105;27;20238;-53
2022/07/29 14:39:38;;;;;;;3.08;2.88;;;;;;;;;;5081053;27;20231;-53
2022/07/29 14:42:07;;;;;;;3.08;2.50;;;;;;;;;;5078247;27;20243;-52
2022/07/29 14:44:34;;;;;;;3.70;3.40;;;;;;;;;;5072798;27;20606;-52
2022/07/29 14:47:00;;;;;;;3.15;2.67;;;;;;;;;;5083291;27;20235;-52
2022/07/29 14:49:27;;;;;;;2.88;2.58;;;;;;;;;;5083183;28;20238;-51
2022/07/29 14:51:53;;;;;;;4.20;3.00;;;;;;;;;;5079774;27;20243;-51
2022/07/29 14:54:19;;;;;;;3.10;2.80;;;;;;;;;;5077404;27;20234;-52
2022/07/29 14:56:46;;;;;;;3.65;3.25;;;;;;;;;;5076902;27;20231;-51